createdAt,value
2017-02-17T00:00:26.956Z,738.75
2017-02-17T00:01:26.941Z,738.71
2017-02-17T00:02:26.921Z,738.73
2017-02-17T00:03:26.893Z,738.73
2017-02-17T00:04:26.872Z,738.68
2017-02-17T00:05:26.851Z,738.61
2017-02-17T00:06:26.829Z,738.61
2017-02-17T00:07:26.809Z,738.66
2017-02-17T00:08:26.790Z,738.59
2017-02-17T00:09:26.768Z,738.55
2017-02-17T00:10:26.752Z,738.62
2017-02-17T00:11:26.728Z,738.59
2017-02-17T00:12:26.705Z,738.68
2017-02-17T00:13:26.683Z,738.58
2017-02-17T00:14:26.662Z,738.47
2017-02-17T00:15:26.640Z,738.47
2017-02-17T00:16:26.627Z,738.64
2017-02-17T00:17:26.598Z,738.55
2017-02-17T00:18:26.577Z,738.51
2017-02-17T00:19:26.563Z,738.51
2017-02-17T00:20:26.535Z,738.49
2017-02-17T00:21:26.515Z,738.44
2017-02-17T00:22:26.494Z,738.49
2017-02-17T00:23:26.472Z,738.49
2017-02-17T00:24:26.457Z,738.44
2017-02-17T00:25:26.429Z,738.42
2017-02-17T00:26:26.438Z,738.48
2017-02-17T00:27:26.392Z,738.49
2017-02-17T00:28:26.365Z,738.43
2017-02-17T00:29:26.344Z,738.43
2017-02-17T00:30:26.323Z,738.48
2017-02-17T00:31:26.303Z,738.45
2017-02-17T00:32:26.287Z,738.49
2017-02-17T00:33:26.265Z,738.26
2017-02-17T00:34:26.237Z,738.38
2017-02-17T00:35:26.219Z,738.23
2017-02-17T00:36:26.194Z,738.36
2017-02-17T00:37:26.174Z,738.46
2017-02-17T00:38:26.153Z,738.52
2017-02-17T00:39:26.130Z,738.31
2017-02-17T00:40:26.111Z,738.56
2017-02-17T00:41:26.089Z,738.44
2017-02-17T00:42:26.071Z,738.41
2017-02-17T00:43:26.054Z,738.47
2017-02-17T00:44:26.027Z,738.51
2017-02-17T00:45:26.011Z,738.47
2017-02-17T00:46:25.991Z,738.52
2017-02-17T00:47:25.964Z,738.49
2017-02-17T00:48:25.949Z,738.46
2017-02-17T00:49:25.928Z,738.48
2017-02-17T00:50:25.907Z,738.43
2017-02-17T00:51:25.886Z,738.42
2017-02-17T00:52:25.864Z,738.35
2017-02-17T00:53:25.837Z,738.36
2017-02-17T00:54:25.820Z,738.33
2017-02-17T00:55:25.793Z,738.28
2017-02-17T00:56:25.773Z,738.31
2017-02-17T00:57:25.750Z,738.37
2017-02-17T00:58:25.729Z,738.37
2017-02-17T00:59:25.714Z,738.24
2017-02-17T01:00:25.689Z,738.23
2017-02-17T01:01:25.666Z,738.27
2017-02-17T01:02:25.645Z,738.21
2017-02-17T01:03:25.624Z,738.26
2017-02-17T01:04:25.609Z,738.25
2017-02-17T01:05:25.581Z,738.28
2017-02-17T01:06:25.568Z,738.24
2017-02-17T01:07:25.540Z,738
2017-02-17T01:08:25.525Z,738.38
2017-02-17T01:09:25.506Z,737.94
2017-02-17T01:10:25.484Z,738.23
2017-02-17T01:11:25.457Z,738.13
2017-02-17T01:12:25.441Z,738.19
2017-02-17T01:13:25.420Z,738.07
2017-02-17T01:14:25.393Z,738.16
2017-02-17T01:15:25.372Z,738.17
2017-02-17T01:16:25.357Z,738.14
2017-02-17T01:17:25.330Z,738.13
2017-02-17T01:18:25.309Z,738.11
2017-02-17T01:19:25.287Z,738.06
2017-02-17T01:20:25.266Z,738.16
2017-02-17T01:21:25.252Z,738.18
2017-02-17T01:22:25.225Z,738.31
2017-02-17T01:23:25.210Z,737.89
2017-02-17T01:24:25.189Z,737.97
2017-02-17T01:25:25.161Z,738.04
2017-02-17T01:26:25.141Z,738.07
2017-02-17T01:27:25.121Z,738.09
2017-02-17T01:28:25.099Z,738.11
2017-02-17T01:29:25.079Z,738.15
2017-02-17T01:30:25.063Z,738.08
2017-02-17T01:31:25.043Z,738.12
2017-02-17T01:32:25.023Z,737.99
2017-02-17T01:33:24.997Z,738.14
2017-02-17T01:34:24.976Z,737.97
2017-02-17T01:35:24.954Z,738.04
2017-02-17T01:36:24.967Z,738.02
2017-02-17T01:37:24.921Z,737.99
2017-02-17T01:38:24.892Z,737.96
2017-02-17T01:39:24.879Z,737.88
2017-02-17T01:40:24.856Z,738.02
2017-02-17T01:41:24.830Z,737.95
2017-02-17T01:42:24.816Z,738.02
2017-02-17T01:43:24.797Z,738.04
2017-02-17T01:44:24.775Z,737.82
2017-02-17T01:45:24.753Z,737.78
2017-02-17T01:46:24.727Z,737.96
2017-02-17T01:47:24.706Z,737.84
2017-02-17T01:48:24.693Z,737.97
2017-02-17T01:49:24.670Z,737.97
2017-02-17T01:50:24.649Z,737.83
2017-02-17T01:51:24.630Z,737.84
2017-02-17T01:52:24.602Z,737.75
2017-02-17T01:53:24.581Z,737.79
2017-02-17T01:54:24.568Z,737.91
2017-02-17T01:55:24.545Z,737.72
2017-02-17T01:56:24.524Z,737.82
2017-02-17T01:57:24.507Z,737.87
2017-02-17T01:58:24.483Z,737.85
2017-02-17T01:59:24.456Z,737.81
2017-02-17T02:00:24.442Z,737.79
2017-02-17T02:01:24.414Z,737.89
2017-02-17T02:02:24.400Z,737.77
2017-02-17T02:03:24.372Z,737.78
2017-02-17T02:04:24.351Z,737.83
2017-02-17T02:05:24.336Z,737.72
2017-02-17T02:06:24.316Z,737.73
2017-02-17T02:07:24.288Z,737.76
2017-02-17T02:08:24.274Z,737.78
2017-02-17T02:09:24.253Z,737.77
2017-02-17T02:10:24.226Z,737.7
2017-02-17T02:11:24.210Z,737.74
2017-02-17T02:12:24.184Z,737.73
2017-02-17T02:13:24.164Z,737.68
2017-02-17T02:14:24.149Z,737.68
2017-02-17T02:15:24.128Z,737.58
2017-02-17T02:16:24.107Z,737.63
2017-02-17T02:17:24.080Z,737.58
2017-02-17T02:18:24.058Z,737.62
2017-02-17T02:19:24.037Z,737.62
2017-02-17T02:20:24.016Z,737.58
2017-02-17T02:21:23.996Z,737.49
2017-02-17T02:22:23.975Z,737.55
2017-02-17T02:23:23.961Z,737.58
2017-02-17T02:24:23.942Z,737.5
2017-02-17T02:25:23.919Z,737.68
2017-02-17T02:26:23.893Z,737.48
2017-02-17T02:27:23.872Z,737.67
2017-02-17T02:28:23.853Z,737.59
2017-02-17T02:29:23.835Z,737.44
2017-02-17T02:30:23.815Z,737.51
2017-02-17T02:31:23.790Z,737.49
2017-02-17T02:32:23.768Z,737.54
2017-02-17T02:33:23.754Z,737.46
2017-02-17T02:34:23.732Z,737.54
2017-02-17T02:35:23.712Z,737.52
2017-02-17T02:36:23.691Z,737.54
2017-02-17T02:37:23.670Z,737.46
2017-02-17T02:38:23.645Z,737.44
2017-02-17T02:39:23.627Z,737.42
2017-02-17T02:40:23.611Z,737.42
2017-02-17T02:41:23.583Z,737.47
2017-02-17T02:42:23.564Z,737.45
2017-02-17T02:43:23.547Z,737.42
2017-02-17T02:44:23.528Z,737.39
2017-02-17T02:45:23.509Z,737.41
2017-02-17T02:46:23.486Z,737.28
2017-02-17T02:47:23.460Z,737.47
2017-02-17T02:48:23.445Z,737.38
2017-02-17T02:49:23.419Z,737.46
2017-02-17T02:50:23.399Z,737.51
2017-02-17T02:51:23.384Z,737.34
2017-02-17T02:52:23.358Z,737.42
2017-02-17T02:53:23.343Z,737.41
2017-02-17T02:54:23.322Z,737.29
2017-02-17T02:55:23.297Z,737.35
2017-02-17T02:56:23.277Z,737.37
2017-02-17T02:57:23.269Z,737.34
2017-02-17T02:58:23.241Z,737.36
2017-02-17T02:59:23.215Z,737.22
2017-02-17T03:00:23.203Z,737.33
2017-02-17T03:01:23.181Z,737.35
2017-02-17T03:02:23.162Z,737.29
2017-02-17T03:03:23.134Z,737.01
2017-02-17T03:04:23.120Z,737.27
2017-02-17T03:05:23.099Z,737.26
2017-02-17T03:06:23.073Z,737.22
2017-02-17T03:07:23.053Z,737.26
2017-02-17T03:08:23.039Z,737.2
2017-02-17T03:09:23.012Z,737.22
2017-02-17T03:10:22.998Z,737.27
2017-02-17T03:11:22.979Z,737.26
2017-02-17T03:12:22.958Z,737.19
2017-02-17T03:13:22.931Z,737.3
2017-02-17T03:14:22.918Z,737.27
2017-02-17T03:15:22.896Z,737.13
2017-02-17T03:16:22.869Z,737.18
2017-02-17T03:17:22.849Z,737.19
2017-02-17T03:18:22.835Z,737.25
2017-02-17T03:19:22.814Z,737.21
2017-02-17T03:20:22.793Z,737.19
2017-02-17T03:21:22.767Z,737.21
2017-02-17T03:22:22.747Z,737.22
2017-02-17T03:23:22.726Z,737.38
2017-02-17T03:24:22.704Z,737.19
2017-02-17T03:25:22.684Z,737.13
2017-02-17T03:26:22.670Z,737.1
2017-02-17T03:27:22.643Z,737.11
2017-02-17T03:28:22.622Z,737.13
2017-02-17T03:29:22.607Z,737.15
2017-02-17T03:30:22.586Z,737.19
2017-02-17T03:31:22.560Z,737.21
2017-02-17T03:32:22.547Z,737.22
2017-02-17T03:33:22.530Z,737.17
2017-02-17T03:34:22.546Z,737.14
2017-02-17T03:35:22.478Z,737.15
2017-02-17T03:36:22.458Z,737.08
2017-02-17T03:37:22.442Z,737.12
2017-02-17T03:38:22.423Z,737.11
2017-02-17T03:39:22.396Z,737.12
2017-02-17T03:40:22.383Z,737.1
2017-02-17T03:41:22.361Z,737.12
2017-02-17T03:42:22.334Z,737.11
2017-02-17T03:43:22.314Z,737.1
2017-02-17T03:44:22.293Z,737.06
2017-02-17T03:45:22.279Z,737.06
2017-02-17T03:46:22.258Z,736.89
2017-02-17T03:47:22.232Z,736.85
2017-02-17T03:48:22.213Z,736.82
2017-02-17T03:49:22.189Z,736.78
2017-02-17T03:50:22.175Z,736.92
2017-02-17T03:51:22.153Z,736.88
2017-02-17T03:52:22.132Z,736.77
2017-02-17T03:53:22.103Z,736.42
2017-02-17T03:54:22.088Z,736.59
2017-02-17T03:55:22.067Z,736.76
2017-02-17T03:56:22.046Z,736.9
2017-02-17T03:57:22.019Z,736.77
2017-02-17T03:58:22.007Z,736.91
2017-02-17T03:59:21.978Z,736.62
2017-02-17T04:00:21.958Z,736.6
2017-02-17T04:01:21.935Z,736.53
2017-02-17T04:02:21.915Z,736.55
2017-02-17T04:03:21.893Z,736.53
2017-02-17T04:04:21.872Z,736.42
2017-02-17T04:05:21.857Z,736.55
2017-02-17T04:06:21.829Z,736.37
2017-02-17T04:07:21.815Z,736.34
2017-02-17T04:08:21.795Z,736.38
2017-02-17T04:09:21.773Z,736.4
2017-02-17T04:10:21.753Z,736.49
2017-02-17T04:11:21.725Z,736.53
2017-02-17T04:12:21.711Z,736.54
2017-02-17T04:13:21.690Z,736.56
2017-02-17T04:14:21.664Z,736.6
2017-02-17T04:15:21.648Z,736.59
2017-02-17T04:16:21.630Z,736.45
2017-02-17T04:17:21.608Z,736.39
2017-02-17T04:18:21.581Z,736.3
2017-02-17T04:19:21.567Z,736.36
2017-02-17T04:20:21.541Z,736.39
2017-02-17T04:21:21.525Z,736.39
2017-02-17T04:22:21.503Z,736.22
2017-02-17T04:23:21.477Z,736.24
2017-02-17T04:24:21.462Z,736.39
2017-02-17T04:25:21.436Z,736.25
2017-02-17T04:26:21.421Z,736.38
2017-02-17T04:27:21.400Z,736.26
2017-02-17T04:28:21.375Z,736.32
2017-02-17T04:29:21.352Z,736.18
2017-02-17T04:30:21.337Z,736.32
2017-02-17T04:31:21.311Z,736.32
2017-02-17T04:32:21.298Z,736.26
2017-02-17T04:33:21.275Z,736.3
2017-02-17T04:34:21.248Z,736.19
2017-02-17T04:35:21.235Z,736.18
2017-02-17T04:36:21.214Z,736.34
2017-02-17T04:37:21.192Z,736.2
2017-02-17T04:38:21.172Z,736.26
2017-02-17T04:39:21.148Z,736.33
2017-02-17T04:40:21.124Z,736.39
2017-02-17T04:41:21.110Z,736.29
2017-02-17T04:42:21.083Z,736.38
2017-02-17T04:43:21.062Z,736.14
2017-02-17T04:44:21.041Z,736.2
2017-02-17T04:45:21.022Z,736.26
2017-02-17T04:46:20.999Z,736.11
2017-02-17T04:47:20.985Z,736.19
2017-02-17T04:48:20.957Z,736.11
2017-02-17T04:49:20.938Z,736.03
2017-02-17T04:50:20.923Z,736.06
2017-02-17T04:51:20.895Z,736.06
2017-02-17T04:52:20.873Z,736.15
2017-02-17T04:53:20.854Z,736.05
2017-02-17T04:54:20.832Z,736.04
2017-02-17T04:55:20.819Z,735.98
2017-02-17T04:56:20.797Z,735.94
2017-02-17T04:57:20.777Z,735.9
2017-02-17T04:58:20.759Z,735.98
2017-02-17T04:59:20.737Z,736.05
2017-02-17T05:00:20.718Z,735.67
2017-02-17T05:01:20.692Z,735.91
2017-02-17T05:02:20.673Z,736
2017-02-17T05:03:20.657Z,735.93
2017-02-17T05:04:20.629Z,735.9
2017-02-17T05:05:20.616Z,735.83
2017-02-17T05:06:20.588Z,735.88
2017-02-17T05:07:20.575Z,735.98
2017-02-17T05:08:20.549Z,735.93
2017-02-17T05:09:20.528Z,735.91
2017-02-17T05:10:20.506Z,736.01
2017-02-17T05:11:20.487Z,735.96
2017-02-17T05:12:20.467Z,735.93
2017-02-17T05:13:20.447Z,736.12
2017-02-17T05:14:20.426Z,735.78
2017-02-17T05:15:20.405Z,735.6
2017-02-17T05:16:20.385Z,735.68
2017-02-17T05:17:20.365Z,735.76
2017-02-17T05:18:20.344Z,735.76
2017-02-17T05:19:20.323Z,735.72
2017-02-17T05:20:20.301Z,735.82
2017-02-17T05:21:20.280Z,735.86
2017-02-17T05:22:20.260Z,735.77
2017-02-17T05:23:20.245Z,735.78
2017-02-17T05:24:20.224Z,735.8
2017-02-17T05:25:20.198Z,735.77
2017-02-17T05:26:20.184Z,735.75
2017-02-17T05:27:20.163Z,735.78
2017-02-17T05:28:20.136Z,735.81
2017-02-17T05:29:20.122Z,735.77
2017-02-17T05:30:20.096Z,735.77
2017-02-17T05:31:20.082Z,735.54
2017-02-17T05:32:20.055Z,735.67
2017-02-17T05:33:20.040Z,735.72
2017-02-17T05:34:20.021Z,735.76
2017-02-17T05:35:19.999Z,735.71
2017-02-17T05:36:19.979Z,735.66
2017-02-17T05:37:19.952Z,735.75
2017-02-17T05:38:19.931Z,735.59
2017-02-17T05:39:19.915Z,735.64
2017-02-17T05:40:19.890Z,735.72
2017-02-17T05:41:19.868Z,735.6
2017-02-17T05:42:19.853Z,735.5
2017-02-17T05:43:19.826Z,735.52
2017-02-17T05:44:19.805Z,735.63
2017-02-17T05:45:19.785Z,735.44
2017-02-17T05:46:19.770Z,735.61
2017-02-17T05:47:19.750Z,735.5
2017-02-17T05:48:19.729Z,735.63
2017-02-17T05:49:19.701Z,735.74
2017-02-17T05:50:19.687Z,735.59
2017-02-17T05:51:19.665Z,735.48
2017-02-17T05:52:19.639Z,735.56
2017-02-17T05:53:19.617Z,735.5
2017-02-17T05:54:19.597Z,735.58
2017-02-17T05:55:19.576Z,735.55
2017-02-17T05:56:19.561Z,735.5
2017-02-17T05:57:19.536Z,735.46
2017-02-17T05:58:19.515Z,735.5
2017-02-17T05:59:19.493Z,735.62
2017-02-17T06:00:19.479Z,735.5
2017-02-17T06:01:19.457Z,735.55
2017-02-17T06:02:19.433Z,735.37
2017-02-17T06:03:19.410Z,735.49
2017-02-17T06:04:19.388Z,735.45
2017-02-17T06:05:19.377Z,735.39
2017-02-17T06:06:19.353Z,735.46
2017-02-17T06:07:19.333Z,735.52
2017-02-17T06:08:19.304Z,735.38
2017-02-17T06:09:19.290Z,735.48
2017-02-17T06:10:19.273Z,735.63
2017-02-17T06:11:19.250Z,735.59
2017-02-17T06:12:19.221Z,735.17
2017-02-17T06:13:19.203Z,735.37
2017-02-17T06:14:19.180Z,735.39
2017-02-17T06:15:19.159Z,735.54
2017-02-17T06:16:19.143Z,735.37
2017-02-17T06:17:19.123Z,735.44
2017-02-17T06:18:19.097Z,735.27
2017-02-17T06:19:19.081Z,735.22
2017-02-17T06:20:19.060Z,735.28
2017-02-17T06:21:19.041Z,735.35
2017-02-17T06:22:19.019Z,735.36
2017-02-17T06:23:18.998Z,735.47
2017-02-17T06:24:18.977Z,735.45
2017-02-17T06:25:18.957Z,735.43
2017-02-17T06:26:18.935Z,735.44
2017-02-17T06:27:18.915Z,735.45
2017-02-17T06:28:18.888Z,735.49
2017-02-17T06:29:18.869Z,735.35
2017-02-17T06:30:18.847Z,735.46
2017-02-17T06:31:18.826Z,735.46
2017-02-17T06:32:18.812Z,735.46
2017-02-17T06:33:18.787Z,735.43
2017-02-17T06:34:18.770Z,735.43
2017-02-17T06:35:18.752Z,735.51
2017-02-17T06:36:18.730Z,735.58
2017-02-17T06:37:18.708Z,735.3
2017-02-17T06:38:18.686Z,735.35
2017-02-17T06:39:18.659Z,735.43
2017-02-17T06:40:18.638Z,735.44
2017-02-17T06:41:18.623Z,735.37
2017-02-17T06:42:18.596Z,735.51
2017-02-17T06:43:18.575Z,735.41
2017-02-17T06:44:18.554Z,735.42
2017-02-17T06:45:18.539Z,735.37
2017-02-17T06:46:18.513Z,735.24
2017-02-17T06:47:18.490Z,735.45
2017-02-17T06:48:18.487Z,735.35
2017-02-17T06:49:18.454Z,735.42
2017-02-17T06:50:18.435Z,735.2
2017-02-17T06:51:18.414Z,735.31
2017-02-17T06:52:18.392Z,735.4
2017-02-17T06:53:18.366Z,735.44
2017-02-17T06:54:18.343Z,735.42
2017-02-17T06:55:18.328Z,735.35
2017-02-17T06:56:18.300Z,735.44
2017-02-17T06:57:18.279Z,735.51
2017-02-17T06:58:18.264Z,735.45
2017-02-17T06:59:18.235Z,735.46
2017-02-17T07:00:18.214Z,735.43
2017-02-17T07:01:18.194Z,735.29
2017-02-17T07:02:18.179Z,735.46
2017-02-17T07:03:18.151Z,735.42
2017-02-17T07:04:18.129Z,735.41
2017-02-17T07:05:18.114Z,735.46
2017-02-17T07:06:18.094Z,735.43
2017-02-17T07:07:18.067Z,735.37
2017-02-17T07:08:18.046Z,735.2
2017-02-17T07:09:18.025Z,735.43
2017-02-17T07:10:18.008Z,735.34
2017-02-17T07:11:17.987Z,735.39
2017-02-17T07:12:17.960Z,735.37
2017-02-17T07:13:17.946Z,735.41
2017-02-17T07:14:17.925Z,735.44
2017-02-17T07:15:17.898Z,735.36
2017-02-17T07:16:17.883Z,735.47
2017-02-17T07:17:17.861Z,735.35
2017-02-17T07:18:17.834Z,735.43
2017-02-17T07:19:17.814Z,735.36
2017-02-17T07:20:17.800Z,735.34
2017-02-17T07:21:17.772Z,735.46
2017-02-17T07:22:17.751Z,735.44
2017-02-17T07:23:17.730Z,735.31
2017-02-17T07:24:17.717Z,735.38
2017-02-17T07:25:17.689Z,735.26
2017-02-17T07:26:17.668Z,735.24
2017-02-17T07:27:17.655Z,735.26
2017-02-17T07:28:17.634Z,735.28
2017-02-17T07:29:17.606Z,735.24
2017-02-17T07:30:17.592Z,735.31
2017-02-17T07:31:17.567Z,735.36
2017-02-17T07:32:17.546Z,735.33
2017-02-17T07:33:17.531Z,735.33
2017-02-17T07:34:17.510Z,735.34
2017-02-17T07:35:17.491Z,735.3
2017-02-17T07:36:17.469Z,735.33
2017-02-17T07:37:17.450Z,735.32
2017-02-17T07:38:17.421Z,735.3
2017-02-17T07:39:17.410Z,735.17
2017-02-17T07:40:17.383Z,735.2
2017-02-17T07:41:17.360Z,735.22
2017-02-17T07:42:17.346Z,735.21
2017-02-17T07:43:17.326Z,735.22
2017-02-17T07:44:17.300Z,735.2
2017-02-17T07:45:17.286Z,735.26
2017-02-17T07:46:17.267Z,735.27
2017-02-17T07:47:17.238Z,735.29
2017-02-17T07:48:17.226Z,735.27
2017-02-17T07:49:17.208Z,735.26
2017-02-17T07:50:17.186Z,735.23
2017-02-17T07:51:17.160Z,735.21
2017-02-17T07:52:17.147Z,735.25
2017-02-17T07:53:17.122Z,735.21
2017-02-17T07:54:17.108Z,735.2
2017-02-17T07:55:17.082Z,735.25
2017-02-17T07:56:17.062Z,735.18
2017-02-17T07:57:17.041Z,735.13
2017-02-17T07:58:17.021Z,735.2
2017-02-17T07:59:17.006Z,735.2
2017-02-17T08:00:16.980Z,735.1
2017-02-17T08:01:16.962Z,735.11
2017-02-17T08:02:16.941Z,735.11
2017-02-17T08:03:16.918Z,735.06
2017-02-17T08:04:16.900Z,735.01
2017-02-17T08:05:16.885Z,735.06
2017-02-17T08:06:16.858Z,735.01
2017-02-17T08:07:16.838Z,735.02
2017-02-17T08:08:16.824Z,735.01
2017-02-17T08:09:16.803Z,735.09
2017-02-17T08:10:16.776Z,735.1
2017-02-17T08:11:16.764Z,735.02
2017-02-17T08:12:16.743Z,735.08
2017-02-17T08:13:16.717Z,735.08
2017-02-17T08:14:16.698Z,735.16
2017-02-17T08:15:16.684Z,735.07
2017-02-17T08:16:16.660Z,735.13
2017-02-17T08:17:16.638Z,735.1
2017-02-17T08:18:16.625Z,735.09
2017-02-17T08:19:16.604Z,735.09
2017-02-17T08:20:16.579Z,735.08
2017-02-17T08:21:16.566Z,735.16
2017-02-17T08:22:16.546Z,735.1
2017-02-17T08:23:16.519Z,735.11
2017-02-17T08:24:16.506Z,735.1
2017-02-17T08:25:16.489Z,735.15
2017-02-17T08:26:16.469Z,735.21
2017-02-17T08:27:16.448Z,735.22
2017-02-17T08:28:16.430Z,735.22
2017-02-17T08:29:16.405Z,735.21
2017-02-17T08:30:16.384Z,735.18
2017-02-17T08:31:16.371Z,735.21
2017-02-17T08:32:16.346Z,735.08
2017-02-17T08:33:16.331Z,735.13
2017-02-17T08:34:16.311Z,735.11
2017-02-17T08:35:16.292Z,735.28
2017-02-17T08:36:16.266Z,735.22
2017-02-17T08:37:16.253Z,735.22
2017-02-17T08:38:16.233Z,735.25
2017-02-17T08:39:16.214Z,735.23
2017-02-17T08:40:16.190Z,735.26
2017-02-17T08:41:16.170Z,735.24
2017-02-17T08:42:16.158Z,735.15
2017-02-17T08:43:16.139Z,735.15
2017-02-17T08:44:16.112Z,735.2
2017-02-17T08:45:16.099Z,735.18
2017-02-17T08:46:16.081Z,735.22
2017-02-17T08:47:16.055Z,735.21
2017-02-17T08:48:16.041Z,735.2
2017-02-17T08:49:16.023Z,735.2
2017-02-17T08:50:15.996Z,735.17
2017-02-17T08:51:15.977Z,735.13
2017-02-17T08:52:15.962Z,735.1
2017-02-17T08:53:15.944Z,735.11
2017-02-17T08:54:15.924Z,735.13
2017-02-17T08:55:15.898Z,735.18
2017-02-17T08:56:15.884Z,735.2
2017-02-17T08:57:15.859Z,735.14
2017-02-17T08:58:15.839Z,735.09
2017-02-17T08:59:15.820Z,735.14
2017-02-17T09:00:15.806Z,735.1
2017-02-17T09:01:15.781Z,735.11
2017-02-17T09:02:15.767Z,735.21
2017-02-17T09:03:15.742Z,735.18
2017-02-17T09:04:15.723Z,735.17
2017-02-17T09:05:15.706Z,735.16
2017-02-17T09:06:15.689Z,735.17
2017-02-17T09:07:15.668Z,735.17
2017-02-17T09:08:15.649Z,735.22
2017-02-17T09:09:15.631Z,735.21
2017-02-17T09:10:15.605Z,735.16
2017-02-17T09:11:15.586Z,735.15
2017-02-17T09:12:15.565Z,735.1
2017-02-17T09:13:15.554Z,735.11
2017-02-17T09:14:15.534Z,735.09
2017-02-17T09:15:15.513Z,735.13
2017-02-17T09:16:15.488Z,735.09
2017-02-17T09:17:15.473Z,735.1
2017-02-17T09:18:15.457Z,735.12
2017-02-17T09:19:15.439Z,735.14
2017-02-17T09:20:15.421Z,735.2
2017-02-17T09:21:15.396Z,735.16
2017-02-17T09:22:15.376Z,735.15
2017-02-17T09:23:15.357Z,735.13
2017-02-17T09:24:15.340Z,735.1
2017-02-17T09:25:15.319Z,735.12
2017-02-17T09:26:15.306Z,735.06
2017-02-17T09:27:15.283Z,735.09
2017-02-17T09:28:15.263Z,735.1
2017-02-17T09:29:15.243Z,735.08
2017-02-17T09:30:15.232Z,735.13
2017-02-17T09:31:15.207Z,735.14
2017-02-17T09:32:15.195Z,735.16
2017-02-17T09:33:15.176Z,735.15
2017-02-17T09:34:15.157Z,735.16
2017-02-17T09:35:15.132Z,735.21
2017-02-17T09:36:15.114Z,735.24
2017-02-17T09:37:15.096Z,735.22
2017-02-17T09:38:15.084Z,735.21
2017-02-17T09:39:15.061Z,735.16
2017-02-17T09:40:15.042Z,735.2
2017-02-17T09:41:15.033Z,735.18
2017-02-17T09:42:15.007Z,735.15
2017-02-17T09:43:14.995Z,735.18
2017-02-17T09:44:14.981Z,735.11
2017-02-17T09:45:14.960Z,735.01
2017-02-17T09:46:14.935Z,735.03
2017-02-17T09:47:14.919Z,735.11
2017-02-17T09:48:14.907Z,735.13
2017-02-17T09:49:14.882Z,735.06
2017-02-17T09:50:14.873Z,735.07
2017-02-17T09:51:14.846Z,735.11
2017-02-17T09:52:14.834Z,735.02
2017-02-17T09:53:14.816Z,734.64
2017-02-17T09:54:14.799Z,734.69
2017-02-17T09:55:14.774Z,734.89
2017-02-17T09:56:14.760Z,734.85
2017-02-17T09:57:14.735Z,734.87
2017-02-17T09:58:14.723Z,734.89
2017-02-17T09:59:14.700Z,734.88
2017-02-17T10:00:14.680Z,734.83
2017-02-17T10:01:14.659Z,734.83
2017-02-17T10:02:14.645Z,734.87
2017-02-17T10:03:14.621Z,734.75
2017-02-17T10:04:14.607Z,734.8
2017-02-17T10:05:14.587Z,734.92
2017-02-17T10:06:14.561Z,734.89
2017-02-17T10:07:14.548Z,734.9
2017-02-17T10:08:14.523Z,734.9
2017-02-17T10:09:14.507Z,734.88
2017-02-17T10:10:14.489Z,734.92
2017-02-17T10:11:14.464Z,734.96
2017-02-17T10:12:14.445Z,734.98
2017-02-17T10:13:14.429Z,735.01
2017-02-17T10:14:14.403Z,735.01
2017-02-17T10:15:14.395Z,735.06
2017-02-17T10:16:14.365Z,734.97
2017-02-17T10:17:14.345Z,735.05
2017-02-17T10:18:14.327Z,735.06
2017-02-17T10:19:14.314Z,734.99
2017-02-17T10:20:14.297Z,734.99
2017-02-17T10:21:14.276Z,734.92
2017-02-17T10:22:14.251Z,734.93
2017-02-17T10:23:14.237Z,734.71
2017-02-17T10:24:14.211Z,735.05
2017-02-17T10:25:14.192Z,734.8
2017-02-17T10:26:14.177Z,734.7
2017-02-17T10:27:14.158Z,734.78
2017-02-17T10:28:14.137Z,734.63
2017-02-17T10:29:14.117Z,734.66
2017-02-17T10:30:14.096Z,734.82
2017-02-17T10:31:14.067Z,734.77
2017-02-17T10:32:14.046Z,734.66
2017-02-17T10:33:14.025Z,734.72
2017-02-17T10:34:14.012Z,734.66
2017-02-17T10:35:13.986Z,734.42
2017-02-17T10:36:13.967Z,734.6
2017-02-17T10:37:13.940Z,734.47
2017-02-17T10:38:13.922Z,734.12
2017-02-17T10:39:13.901Z,734.58
2017-02-17T10:40:13.879Z,734.41
2017-02-17T10:41:13.857Z,734.47
2017-02-17T10:42:13.836Z,734.39
2017-02-17T10:43:13.809Z,734.49
2017-02-17T10:44:13.786Z,734.34
2017-02-17T10:45:13.765Z,734.45
2017-02-17T10:46:13.742Z,734.38
2017-02-17T10:47:13.726Z,734.46
2017-02-17T10:48:13.705Z,734.52
2017-02-17T10:49:13.683Z,734.45
2017-02-17T10:50:13.661Z,734.38
2017-02-17T10:51:13.634Z,734.4
2017-02-17T10:52:13.615Z,734.34
2017-02-17T10:53:13.597Z,734.34
2017-02-17T10:54:13.568Z,734.48
2017-02-17T10:55:13.554Z,734.39
2017-02-17T10:56:13.533Z,734.37
2017-02-17T10:57:13.503Z,734.46
2017-02-17T10:58:13.489Z,734.46
2017-02-17T10:59:13.461Z,734.27
2017-02-17T11:00:13.445Z,734.41
2017-02-17T11:01:13.424Z,734.3
2017-02-17T11:02:13.402Z,734.41
2017-02-17T11:03:13.373Z,734.17
2017-02-17T11:04:13.352Z,734.43
2017-02-17T11:05:13.331Z,734.31
2017-02-17T11:06:13.313Z,734.06
2017-02-17T11:07:13.293Z,734.25
2017-02-17T11:08:13.263Z,734.23
2017-02-17T11:09:13.244Z,734.34
2017-02-17T11:10:13.226Z,734.14
2017-02-17T11:11:13.204Z,734.23
2017-02-17T11:12:13.178Z,734.19
2017-02-17T11:13:13.163Z,734.31
2017-02-17T11:14:13.142Z,734.3
2017-02-17T11:15:13.113Z,734.32
2017-02-17T11:16:13.093Z,734.14
2017-02-17T11:17:13.071Z,734.28
2017-02-17T11:18:13.050Z,734.17
2017-02-17T11:19:13.037Z,734.2
2017-02-17T11:20:13.016Z,734.52
2017-02-17T11:21:12.993Z,734.16
2017-02-17T11:22:12.972Z,734.2
2017-02-17T11:23:12.952Z,734.15
2017-02-17T11:24:12.925Z,734.15
2017-02-17T11:25:12.904Z,734.23
2017-02-17T11:26:12.888Z,734.11
2017-02-17T11:27:12.860Z,734.04
2017-02-17T11:28:12.847Z,734.18
2017-02-17T11:29:12.825Z,734.24
2017-02-17T11:30:12.799Z,734.15
2017-02-17T11:31:12.784Z,734.12
2017-02-17T11:32:12.757Z,734.1
2017-02-17T11:33:12.741Z,734.14
2017-02-17T11:34:12.722Z,734.14
2017-02-17T11:35:12.700Z,734.11
2017-02-17T11:36:12.673Z,734.16
2017-02-17T11:37:12.659Z,734.24
2017-02-17T11:38:12.639Z,734.1
2017-02-17T11:39:12.617Z,734.17
2017-02-17T11:40:12.597Z,734.11
2017-02-17T11:41:12.573Z,734.14
2017-02-17T11:42:12.554Z,734.25
2017-02-17T11:43:12.531Z,734.17
2017-02-17T11:44:12.506Z,734.21
2017-02-17T11:45:12.482Z,734.25
2017-02-17T11:46:12.461Z,734.3
2017-02-17T11:47:12.445Z,734.23
2017-02-17T11:48:12.423Z,734.16
2017-02-17T11:49:12.401Z,734.1
2017-02-17T11:50:12.374Z,734.12
2017-02-17T11:51:12.359Z,734.19
2017-02-17T11:52:12.336Z,734.16
2017-02-17T11:53:12.309Z,734.16
2017-02-17T11:54:12.296Z,734.11
2017-02-17T11:55:12.267Z,734.05
2017-02-17T11:56:12.247Z,734.13
2017-02-17T11:57:12.233Z,734.18
2017-02-17T11:58:12.211Z,734.2
2017-02-17T11:59:12.182Z,734.16
2017-02-17T12:00:12.168Z,734.21
2017-02-17T12:01:12.141Z,734.18
2017-02-17T12:02:12.128Z,734.2
2017-02-17T12:03:12.100Z,734.18
2017-02-17T12:04:12.081Z,734.19
2017-02-17T12:05:12.066Z,734.15
2017-02-17T12:06:12.045Z,734.12
2017-02-17T12:07:12.026Z,734.15
2017-02-17T12:08:12.009Z,734.15
2017-02-17T12:09:11.986Z,734.14
2017-02-17T12:10:11.966Z,734.14
2017-02-17T12:11:11.947Z,734.22
2017-02-17T12:12:11.928Z,734.15
2017-02-17T12:13:11.900Z,734.17
2017-02-17T12:14:11.880Z,734.16
2017-02-17T12:15:11.871Z,734.14
2017-02-17T12:16:11.842Z,734.14
2017-02-17T12:17:11.822Z,734.17
2017-02-17T12:18:11.809Z,734.17
2017-02-17T12:19:11.784Z,734.11
2017-02-17T12:20:11.770Z,734.11
2017-02-17T12:21:11.749Z,734.1
2017-02-17T12:22:11.725Z,734.15
2017-02-17T12:23:11.706Z,734.21
2017-02-17T12:24:11.686Z,734.25
2017-02-17T12:25:11.672Z,734.16
2017-02-17T12:26:11.648Z,734.09
2017-02-17T12:27:11.629Z,734.11
2017-02-17T12:28:11.615Z,734.15
2017-02-17T12:29:11.591Z,733.83
2017-02-17T12:30:11.570Z,733.97